sensor_id;sensor_type;location;lat;lon;timestamp;P1;durP1;ratioP1;P2;durP2;ratioP2
84491;SDS011;74718;40.778;21.400;2023-12-20T00:00:57;33.20;;;19.50;;
84491;SDS011;74718;40.778;21.400;2023-12-20T00:03:23;20.40;;;13.50;;
84491;SDS011;74718;40.778;21.400;2023-12-20T00:05:49;17.80;;;13.20;;
84491;SDS011;74718;40.778;21.400;2023-12-20T00:08:14;33.60;;;20.60;;
84491;SDS011;74718;40.778;21.400;2023-12-20T00:10:40;27.90;;;19.00;;
84491;SDS011;74718;40.778;21.400;2023-12-20T00:13:05;19.90;;;13.30;;
84491;SDS011;74718;40.778;21.400;2023-12-20T00:15:32;13.30;;;8.90;;
84491;SDS011;74718;40.778;21.400;2023-12-20T00:17:58;12.70;;;8.70;;
84491;SDS011;74718;40.778;21.400;2023-12-20T00:20:24;11.30;;;8.50;;
84491;SDS011;74718;40.778;21.400;2023-12-20T00:22:49;21.50;;;15.40;;
84491;SDS011;74718;40.778;21.400;2023-12-20T00:25:15;22.60;;;17.10;;
84491;SDS011;74718;40.778;21.400;2023-12-20T00:27:40;25.20;;;18.50;;
84491;SDS011;74718;40.778;21.400;2023-12-20T00:30:07;19.00;;;14.20;;
84491;SDS011;74718;40.778;21.400;2023-12-20T00:32:33;16.00;;;12.30;;
84491;SDS011;74718;40.778;21.400;2023-12-20T00:34:58;15.70;;;11.70;;
84491;SDS011;74718;40.778;21.400;2023-12-20T00:37:23;20.30;;;14.30;;
84491;SDS011;74718;40.778;21.400;2023-12-20T00:39:49;17.20;;;13.10;;
84491;SDS011;74718;40.778;21.400;2023-12-20T00:42:15;16.30;;;11.60;;
84491;SDS011;74718;40.778;21.400;2023-12-20T00:44:40;14.30;;;10.70;;
84491;SDS011;74718;40.778;21.400;2023-12-20T00:47:05;13.60;;;10.50;;
84491;SDS011;74718;40.778;21.400;2023-12-20T00:49:31;16.80;;;11.30;;
84491;SDS011;74718;40.778;21.400;2023-12-20T00:51:56;17.00;;;12.20;;
84491;SDS011;74718;40.778;21.400;2023-12-20T00:54:22;15.70;;;10.60;;
84491;SDS011;74718;40.778;21.400;2023-12-20T00:56:47;10.20;;;7.30;;
84491;SDS011;74718;40.778;21.400;2023-12-20T00:59:13;7.40;;;5.10;;
84491;SDS011;74718;40.778;21.400;2023-12-20T01:01:39;8.40;;;6.00;;
84491;SDS011;74718;40.778;21.400;2023-12-20T01:04:05;8.40;;;5.90;;
84491;SDS011;74718;40.778;21.400;2023-12-20T01:06:30;13.00;;;11.10;;
84491;SDS011;74718;40.778;21.400;2023-12-20T01:08:56;14.70;;;11.00;;
84491;SDS011;74718;40.778;21.400;2023-12-20T01:11:21;13.00;;;9.20;;
84491;SDS011;74718;40.778;21.400;2023-12-20T01:13:47;12.20;;;7.60;;
84491;SDS011;74718;40.778;21.400;2023-12-20T01:16:12;8.90;;;6.00;;
84491;SDS011;74718;40.778;21.400;2023-12-20T01:18:38;6.80;;;4.60;;
84491;SDS011;74718;40.778;21.400;2023-12-20T01:21:04;4.70;;;3.30;;
84491;SDS011;74718;40.778;21.400;2023-12-20T01:23:30;6.60;;;4.20;;
84491;SDS011;74718;40.778;21.400;2023-12-20T01:25:56;8.00;;;5.30;;
84491;SDS011;74718;40.778;21.400;2023-12-20T01:28:21;10.60;;;7.00;;
84491;SDS011;74718;40.778;21.400;2023-12-20T01:30:47;15.00;;;9.10;;
84491;SDS011;74718;40.778;21.400;2023-12-20T01:33:13;12.50;;;8.10;;
84491;SDS011;74718;40.778;21.400;2023-12-20T01:35:38;11.30;;;7.10;;
84491;SDS011;74718;40.778;21.400;2023-12-20T01:38:03;10.30;;;6.80;;
84491;SDS011;74718;40.778;21.400;2023-12-20T01:40:29;8.40;;;5.20;;
84491;SDS011;74718;40.778;21.400;2023-12-20T01:43:01;9.90;;;7.50;;
84491;SDS011;74718;40.778;21.400;2023-12-20T01:45:30;10.10;;;6.40;;
84491;SDS011;74718;40.778;21.400;2023-12-20T01:47:56;9.00;;;6.30;;
84491;SDS011;74718;40.778;21.400;2023-12-20T01:50:24;12.40;;;8.80;;
84491;SDS011;74718;40.778;21.400;2023-12-20T01:52:50;10.90;;;6.90;;
84491;SDS011;74718;40.778;21.400;2023-12-20T01:55:18;12.50;;;8.30;;
84491;SDS011;74718;40.778;21.400;2023-12-20T01:57:45;26.00;;;14.20;;
84491;SDS011;74718;40.778;21.400;2023-12-20T02:00:12;26.20;;;15.60;;
84491;SDS011;74718;40.778;21.400;2023-12-20T02:02:40;15.40;;;9.00;;
84491;SDS011;74718;40.778;21.400;2023-12-20T02:05:06;12.40;;;8.70;;
84491;SDS011;74718;40.778;21.400;2023-12-20T02:07:33;14.30;;;9.20;;
84491;SDS011;74718;40.778;21.400;2023-12-20T02:10:00;19.60;;;12.20;;
84491;SDS011;74718;40.778;21.400;2023-12-20T02:12:26;16.40;;;10.90;;
84491;SDS011;74718;40.778;21.400;2023-12-20T02:14:51;22.80;;;14.20;;
84491;SDS011;74718;40.778;21.400;2023-12-20T02:17:19;18.60;;;11.50;;
84491;SDS011;74718;40.778;21.400;2023-12-20T02:19:45;12.10;;;8.10;;
84491;SDS011;74718;40.778;21.400;2023-12-20T02:22:11;14.40;;;8.60;;
84491;SDS011;74718;40.778;21.400;2023-12-20T02:24:37;11.00;;;7.70;;
84491;SDS011;74718;40.778;21.400;2023-12-20T02:27:03;10.30;;;7.50;;
84491;SDS011;74718;40.778;21.400;2023-12-20T02:29:30;10.40;;;7.70;;
84491;SDS011;74718;40.778;21.400;2023-12-20T02:31:57;9.50;;;6.20;;
84491;SDS011;74718;40.778;21.400;2023-12-20T02:34:22;8.10;;;5.00;;
84491;SDS011;74718;40.778;21.400;2023-12-20T02:36:48;8.70;;;4.70;;
84491;SDS011;74718;40.778;21.400;2023-12-20T02:39:13;6.20;;;4.80;;
84491;SDS011;74718;40.778;21.400;2023-12-20T02:41:39;5.30;;;3.30;;
84491;SDS011;74718;40.778;21.400;2023-12-20T02:44:04;5.30;;;3.60;;
84491;SDS011;74718;40.778;21.400;2023-12-20T02:46:30;9.30;;;6.40;;
84491;SDS011;74718;40.778;21.400;2023-12-20T02:48:55;22.10;;;13.20;;
84491;SDS011;74718;40.778;21.400;2023-12-20T02:51:21;7.60;;;5.40;;
84491;SDS011;74718;40.778;21.400;2023-12-20T02:53:46;6.30;;;4.30;;
84491;SDS011;74718;40.778;21.400;2023-12-20T02:56:12;9.70;;;5.90;;
84491;SDS011;74718;40.778;21.400;2023-12-20T02:58:38;8.50;;;6.00;;
84491;SDS011;74718;40.778;21.400;2023-12-20T03:01:04;9.60;;;7.60;;
84491;SDS011;74718;40.778;21.400;2023-12-20T03:03:29;10.80;;;7.50;;
84491;SDS011;74718;40.778;21.400;2023-12-20T03:05:55;11.60;;;7.30;;
84491;SDS011;74718;40.778;21.400;2023-12-20T03:08:20;10.10;;;7.20;;
84491;SDS011;74718;40.778;21.400;2023-12-20T03:10:46;10.20;;;7.50;;
84491;SDS011;74718;40.778;21.400;2023-12-20T03:13:11;11.30;;;8.00;;
84491;SDS011;74718;40.778;21.400;2023-12-20T03:15:36;12.50;;;9.10;;
84491;SDS011;74718;40.778;21.400;2023-12-20T03:18:03;17.40;;;14.00;;
84491;SDS011;74718;40.778;21.400;2023-12-20T03:20:28;13.30;;;10.10;;
84491;SDS011;74718;40.778;21.400;2023-12-20T03:22:56;14.80;;;10.70;;
84491;SDS011;74718;40.778;21.400;2023-12-20T03:25:21;14.10;;;10.40;;
84491;SDS011;74718;40.778;21.400;2023-12-20T03:27:47;12.20;;;9.30;;
84491;SDS011;74718;40.778;21.400;2023-12-20T03:30:12;12.30;;;9.80;;
84491;SDS011;74718;40.778;21.400;2023-12-20T03:32:38;14.00;;;9.80;;
84491;SDS011;74718;40.778;21.400;2023-12-20T03:35:04;13.70;;;9.80;;
84491;SDS011;74718;40.778;21.400;2023-12-20T03:37:30;12.60;;;8.40;;
84491;SDS011;74718;40.778;21.400;2023-12-20T03:39:55;9.80;;;6.30;;
84491;SDS011;74718;40.778;21.400;2023-12-20T03:42:21;6.70;;;4.70;;
84491;SDS011;74718;40.778;21.400;2023-12-20T03:44:46;7.30;;;5.30;;
84491;SDS011;74718;40.778;21.400;2023-12-20T03:47:11;6.60;;;4.10;;
84491;SDS011;74718;40.778;21.400;2023-12-20T03:49:37;5.20;;;3.90;;
84491;SDS011;74718;40.778;21.400;2023-12-20T03:52:04;5.70;;;3.50;;
84491;SDS011;74718;40.778;21.400;2023-12-20T03:54:30;8.50;;;7.10;;
84491;SDS011;74718;40.778;21.400;2023-12-20T03:56:55;9.80;;;6.40;;
84491;SDS011;74718;40.778;21.400;2023-12-20T03:59:21;9.10;;;6.00;;
84491;SDS011;74718;40.778;21.400;2023-12-20T04:01:46;10.00;;;7.00;;
84491;SDS011;74718;40.778;21.400;2023-12-20T04:04:12;8.40;;;6.20;;
84491;SDS011;74718;40.778;21.400;2023-12-20T04:06:38;9.50;;;5.90;;
84491;SDS011;74718;40.778;21.400;2023-12-20T04:09:04;8.60;;;6.50;;
84491;SDS011;74718;40.778;21.400;2023-12-20T04:11:29;8.30;;;6.30;;
84491;SDS011;74718;40.778;21.400;2023-12-20T04:13:55;8.30;;;6.20;;
84491;SDS011;74718;40.778;21.400;2023-12-20T04:16:20;9.10;;;7.20;;
84491;SDS011;74718;40.778;21.400;2023-12-20T04:18:46;9.20;;;6.40;;
84491;SDS011;74718;40.778;21.400;2023-12-20T04:21:11;9.40;;;6.70;;
84491;SDS011;74718;40.778;21.400;2023-12-20T04:23:37;9.70;;;6.80;;
84491;SDS011;74718;40.778;21.400;2023-12-20T04:26:02;10.50;;;6.90;;
84491;SDS011;74718;40.778;21.400;2023-12-20T04:28:28;9.70;;;7.60;;
84491;SDS011;74718;40.778;21.400;2023-12-20T04:30:55;10.70;;;8.90;;
84491;SDS011;74718;40.778;21.400;2023-12-20T04:33:21;11.60;;;8.40;;
84491;SDS011;74718;40.778;21.400;2023-12-20T04:35:48;11.40;;;8.00;;
84491;SDS011;74718;40.778;21.400;2023-12-20T04:38:13;11.00;;;9.40;;
84491;SDS011;74718;40.778;21.400;2023-12-20T04:40:39;14.00;;;12.00;;
84491;SDS011;74718;40.778;21.400;2023-12-20T04:43:06;11.10;;;8.30;;
84491;SDS011;74718;40.778;21.400;2023-12-20T04:45:32;13.60;;;10.00;;
84491;SDS011;74718;40.778;21.400;2023-12-20T04:47:58;12.40;;;9.90;;
84491;SDS011;74718;40.778;21.400;2023-12-20T04:50:23;12.40;;;8.50;;
84491;SDS011;74718;40.778;21.400;2023-12-20T04:52:49;10.50;;;8.00;;
84491;SDS011;74718;40.778;21.400;2023-12-20T04:55:14;13.90;;;9.10;;
84491;SDS011;74718;40.778;21.400;2023-12-20T04:57:40;11.90;;;10.70;;
84491;SDS011;74718;40.778;21.400;2023-12-20T05:00:06;12.30;;;9.10;;
84491;SDS011;74718;40.778;21.400;2023-12-20T05:02:33;12.20;;;9.60;;
84491;SDS011;74718;40.778;21.400;2023-12-20T05:05:00;10.90;;;8.50;;
84491;SDS011;74718;40.778;21.400;2023-12-20T05:07:25;13.10;;;10.50;;
84491;SDS011;74718;40.778;21.400;2023-12-20T05:09:51;18.90;;;14.10;;
84491;SDS011;74718;40.778;21.400;2023-12-20T05:12:16;18.80;;;14.30;;
84491;SDS011;74718;40.778;21.400;2023-12-20T05:14:41;17.30;;;13.90;;
84491;SDS011;74718;40.778;21.400;2023-12-20T05:17:07;18.60;;;15.70;;
84491;SDS011;74718;40.778;21.400;2023-12-20T05:19:32;25.80;;;19.70;;
84491;SDS011;74718;40.778;21.400;2023-12-20T05:22:00;24.80;;;17.40;;
84491;SDS011;74718;40.778;21.400;2023-12-20T05:24:27;25.40;;;19.50;;
84491;SDS011;74718;40.778;21.400;2023-12-20T05:26:53;26.40;;;20.80;;
84491;SDS011;74718;40.778;21.400;2023-12-20T05:29:18;29.40;;;23.80;;
84491;SDS011;74718;40.778;21.400;2023-12-20T05:31:44;29.00;;;19.50;;
84491;SDS011;74718;40.778;21.400;2023-12-20T05:34:09;32.40;;;21.70;;
84491;SDS011;74718;40.778;21.400;2023-12-20T05:36:35;67.40;;;41.80;;
84491;SDS011;74718;40.778;21.400;2023-12-20T05:39:01;58.60;;;36.30;;
84491;SDS011;74718;40.778;21.400;2023-12-20T05:41:29;53.20;;;34.00;;
84491;SDS011;74718;40.778;21.400;2023-12-20T05:43:54;46.30;;;32.50;;
84491;SDS011;74718;40.778;21.400;2023-12-20T05:46:20;44.40;;;29.80;;
84491;SDS011;74718;40.778;21.400;2023-12-20T05:48:46;30.00;;;20.40;;
84491;SDS011;74718;40.778;21.400;2023-12-20T05:51:13;32.30;;;20.70;;
84491;SDS011;74718;40.778;21.400;2023-12-20T05:53:39;46.50;;;30.30;;
84491;SDS011;74718;40.778;21.400;2023-12-20T05:56:05;38.90;;;25.00;;
84491;SDS011;74718;40.778;21.400;2023-12-20T05:58:31;30.80;;;19.90;;
84491;SDS011;74718;40.778;21.400;2023-12-20T06:00:58;32.50;;;20.00;;
84491;SDS011;74718;40.778;21.400;2023-12-20T06:03:24;29.70;;;17.50;;
84491;SDS011;74718;40.778;21.400;2023-12-20T06:05:49;35.70;;;23.80;;
84491;SDS011;74718;40.778;21.400;2023-12-20T06:08:15;39.50;;;26.60;;
84491;SDS011;74718;40.778;21.400;2023-12-20T06:10:41;38.20;;;25.30;;
84491;SDS011;74718;40.778;21.400;2023-12-20T06:13:06;40.00;;;24.90;;
84491;SDS011;74718;40.778;21.400;2023-12-20T06:15:32;41.30;;;25.10;;
84491;SDS011;74718;40.778;21.400;2023-12-20T06:17:58;41.00;;;28.20;;
84491;SDS011;74718;40.778;21.400;2023-12-20T06:20:23;40.60;;;27.80;;
84491;SDS011;74718;40.778;21.400;2023-12-20T06:22:50;40.00;;;27.50;;
84491;SDS011;74718;40.778;21.400;2023-12-20T06:25:16;52.30;;;33.50;;
84491;SDS011;74718;40.778;21.400;2023-12-20T06:27:41;43.20;;;27.80;;
84491;SDS011;74718;40.778;21.400;2023-12-20T06:30:07;43.40;;;25.60;;
84491;SDS011;74718;40.778;21.400;2023-12-20T06:32:36;41.50;;;25.50;;
84491;SDS011;74718;40.778;21.400;2023-12-20T06:35:03;47.90;;;29.90;;
84491;SDS011;74718;40.778;21.400;2023-12-20T06:37:30;48.50;;;30.20;;
84491;SDS011;74718;40.778;21.400;2023-12-20T06:39:55;43.90;;;30.50;;
84491;SDS011;74718;40.778;21.400;2023-12-20T06:42:22;53.20;;;34.70;;
84491;SDS011;74718;40.778;21.400;2023-12-20T06:44:47;54.00;;;36.30;;
84491;SDS011;74718;40.778;21.400;2023-12-20T06:47:13;48.90;;;35.20;;
84491;SDS011;74718;40.778;21.400;2023-12-20T06:49:39;51.60;;;35.10;;
84491;SDS011;74718;40.778;21.400;2023-12-20T06:52:05;52.30;;;38.00;;
84491;SDS011;74718;40.778;21.400;2023-12-20T06:54:31;58.50;;;40.00;;
84491;SDS011;74718;40.778;21.400;2023-12-20T06:56:59;62.50;;;41.10;;
84491;SDS011;74718;40.778;21.400;2023-12-20T06:59:24;54.50;;;37.30;;
84491;SDS011;74718;40.778;21.400;2023-12-20T07:01:51;52.90;;;37.50;;
84491;SDS011;74718;40.778;21.400;2023-12-20T07:04:16;43.10;;;32.00;;
84491;SDS011;74718;40.778;21.400;2023-12-20T07:06:45;44.40;;;33.20;;
84491;SDS011;74718;40.778;21.400;2023-12-20T07:09:13;45.30;;;33.20;;
84491;SDS011;74718;40.778;21.400;2023-12-20T07:11:39;43.10;;;32.90;;
84491;SDS011;74718;40.778;21.400;2023-12-20T07:14:04;42.30;;;32.70;;
84491;SDS011;74718;40.778;21.400;2023-12-20T07:16:30;41.30;;;31.70;;
84491;SDS011;74718;40.778;21.400;2023-12-20T07:18:55;35.80;;;28.00;;
84491;SDS011;74718;40.778;21.400;2023-12-20T08:51:13;36.80;;;32.90;;
84491;SDS011;74718;40.778;21.400;2023-12-20T08:53:39;33.90;;;30.20;;
84491;SDS011;74718;40.778;21.400;2023-12-20T08:56:04;33.60;;;29.10;;
84491;SDS011;74718;40.778;21.400;2023-12-20T08:58:30;33.60;;;29.40;;
84491;SDS011;74718;40.778;21.400;2023-12-20T09:00:56;33.50;;;28.20;;
84491;SDS011;74718;40.778;21.400;2023-12-20T09:03:22;33.50;;;29.80;;
84491;SDS011;74718;40.778;21.400;2023-12-20T09:05:48;35.90;;;31.20;;
84491;SDS011;74718;40.778;21.400;2023-12-20T09:08:13;34.70;;;30.90;;
84491;SDS011;74718;40.778;21.400;2023-12-20T09:10:38;36.40;;;30.40;;
84491;SDS011;74718;40.778;21.400;2023-12-20T09:13:04;35.60;;;29.80;;
84491;SDS011;74718;40.778;21.400;2023-12-20T09:15:30;41.20;;;32.20;;
84491;SDS011;74718;40.778;21.400;2023-12-20T09:17:55;35.00;;;28.20;;
84491;SDS011;74718;40.778;21.400;2023-12-20T09:20:21;33.10;;;26.00;;
84491;SDS011;74718;40.778;21.400;2023-12-20T09:22:48;35.70;;;28.40;;
84491;SDS011;74718;40.778;21.400;2023-12-20T09:25:14;33.30;;;27.10;;
84491;SDS011;74718;40.778;21.400;2023-12-20T09:27:41;37.90;;;28.10;;
84491;SDS011;74718;40.778;21.400;2023-12-20T09:30:06;38.80;;;27.70;;
84491;SDS011;74718;40.778;21.400;2023-12-20T09:32:32;32.70;;;24.30;;
84491;SDS011;74718;40.778;21.400;2023-12-20T09:34:58;31.40;;;21.90;;
84491;SDS011;74718;40.778;21.400;2023-12-20T09:37:26;26.80;;;21.40;;
84491;SDS011;74718;40.778;21.400;2023-12-20T09:39:51;28.70;;;23.00;;
84491;SDS011;74718;40.778;21.400;2023-12-20T09:42:17;27.80;;;21.20;;
84491;SDS011;74718;40.778;21.400;2023-12-20T09:44:50;28.10;;;22.10;;
84491;SDS011;74718;40.778;21.400;2023-12-20T09:47:15;28.10;;;20.00;;
84491;SDS011;74718;40.778;21.400;2023-12-20T09:49:44;30.80;;;23.30;;
84491;SDS011;74718;40.778;21.400;2023-12-20T09:52:10;25.90;;;20.10;;
84491;SDS011;74718;40.778;21.400;2023-12-20T09:54:38;27.80;;;21.70;;
84491;SDS011;74718;40.778;21.400;2023-12-20T09:57:03;25.20;;;19.80;;
84491;SDS011;74718;40.778;21.400;2023-12-20T09:59:29;28.60;;;22.60;;
84491;SDS011;74718;40.778;21.400;2023-12-20T10:01:55;31.50;;;25.20;;
84491;SDS011;74718;40.778;21.400;2023-12-20T10:04:22;35.10;;;26.30;;
84491;SDS011;74718;40.778;21.400;2023-12-20T10:06:47;33.50;;;26.20;;
84491;SDS011;74718;40.778;21.400;2023-12-20T10:09:13;29.60;;;21.70;;
84491;SDS011;74718;40.778;21.400;2023-12-20T10:11:39;31.90;;;23.20;;
84491;SDS011;74718;40.778;21.400;2023-12-20T10:14:05;36.80;;;27.40;;
84491;SDS011;74718;40.778;21.400;2023-12-20T10:16:32;32.70;;;26.00;;
84491;SDS011;74718;40.778;21.400;2023-12-20T10:18:58;40.50;;;31.90;;
84491;SDS011;74718;40.778;21.400;2023-12-20T10:21:25;31.60;;;23.60;;
84491;SDS011;74718;40.778;21.400;2023-12-20T10:23:54;28.00;;;19.50;;
84491;SDS011;74718;40.778;21.400;2023-12-20T10:26:21;27.80;;;21.30;;
84491;SDS011;74718;40.778;21.400;2023-12-20T10:28:53;27.30;;;20.00;;
84491;SDS011;74718;40.778;21.400;2023-12-20T10:31:29;27.90;;;19.90;;
84491;SDS011;74718;40.778;21.400;2023-12-20T10:33:59;23.50;;;18.70;;
84491;SDS011;74718;40.778;21.400;2023-12-20T10:36:26;25.70;;;19.20;;
84491;SDS011;74718;40.778;21.400;2023-12-20T10:38:54;19.30;;;14.10;;
84491;SDS011;74718;40.778;21.400;2023-12-20T10:41:28;18.80;;;13.30;;
84491;SDS011;74718;40.778;21.400;2023-12-20T10:43:56;25.00;;;18.10;;
84491;SDS011;74718;40.778;21.400;2023-12-20T10:48:53;20.40;;;14.10;;
84491;SDS011;74718;40.778;21.400;2023-12-20T10:51:19;17.40;;;13.50;;
84491;SDS011;74718;40.778;21.400;2023-12-20T10:53:47;19.60;;;13.90;;
84491;SDS011;74718;40.778;21.400;2023-12-20T10:56:15;21.80;;;16.50;;
84491;SDS011;74718;40.778;21.400;2023-12-20T10:58:46;19.90;;;15.40;;
84491;SDS011;74718;40.778;21.400;2023-12-20T11:01:15;20.60;;;16.00;;
84491;SDS011;74718;40.778;21.400;2023-12-20T11:03:48;20.00;;;14.60;;
84491;SDS011;74718;40.778;21.400;2023-12-20T11:06:29;20.80;;;15.50;;
84491;SDS011;74718;40.778;21.400;2023-12-20T11:12:24;20.70;;;15.50;;
84491;SDS011;74718;40.778;21.400;2023-12-20T11:14:57;22.00;;;16.50;;
84491;SDS011;74718;40.778;21.400;2023-12-20T11:17:28;20.70;;;15.70;;
84491;SDS011;74718;40.778;21.400;2023-12-20T11:22:25;22.00;;;17.10;;
84491;SDS011;74718;40.778;21.400;2023-12-20T11:24:53;21.10;;;16.20;;
84491;SDS011;74718;40.778;21.400;2023-12-20T11:27:20;20.80;;;15.00;;
84491;SDS011;74718;40.778;21.400;2023-12-20T11:29:53;17.90;;;13.90;;
84491;SDS011;74718;40.778;21.400;2023-12-20T11:34:55;17.00;;;13.40;;
84491;SDS011;74718;40.778;21.400;2023-12-20T11:37:28;18.80;;;14.70;;
84491;SDS011;74718;40.778;21.400;2023-12-20T11:39:55;18.30;;;13.60;;
84491;SDS011;74718;40.778;21.400;2023-12-20T11:42:24;19.60;;;14.40;;
84491;SDS011;74718;40.778;21.400;2023-12-20T11:44:50;19.20;;;13.20;;
84491;SDS011;74718;40.778;21.400;2023-12-20T11:47:15;17.20;;;13.00;;
84491;SDS011;74718;40.778;21.400;2023-12-20T11:49:44;16.00;;;12.30;;
84491;SDS011;74718;40.778;21.400;2023-12-20T11:52:12;17.80;;;13.20;;
84491;SDS011;74718;40.778;21.400;2023-12-20T11:54:38;15.90;;;11.40;;
84491;SDS011;74718;40.778;21.400;2023-12-20T11:57:04;17.60;;;13.60;;
84491;SDS011;74718;40.778;21.400;2023-12-20T11:59:30;16.50;;;12.30;;
84491;SDS011;74718;40.778;21.400;2023-12-20T12:01:56;16.80;;;12.80;;
84491;SDS011;74718;40.778;21.400;2023-12-20T12:04:26;21.80;;;16.70;;
84491;SDS011;74718;40.778;21.400;2023-12-20T12:06:53;17.30;;;13.30;;
84491;SDS011;74718;40.778;21.400;2023-12-20T12:43:07;29.40;;;25.50;;
84491;SDS011;74718;40.778;21.400;2023-12-20T12:45:32;31.50;;;25.00;;
84491;SDS011;74718;40.778;21.400;2023-12-20T12:47:57;31.60;;;23.70;;
84491;SDS011;74718;40.778;21.400;2023-12-20T12:50:23;34.60;;;27.40;;
84491;SDS011;74718;40.778;21.400;2023-12-20T12:52:48;33.90;;;25.10;;
84491;SDS011;74718;40.778;21.400;2023-12-20T12:55:14;37.20;;;25.00;;
84491;SDS011;74718;40.778;21.400;2023-12-20T12:57:39;33.30;;;24.70;;
84491;SDS011;74718;40.778;21.400;2023-12-20T13:00:05;34.50;;;24.20;;
84491;SDS011;74718;40.778;21.400;2023-12-20T13:02:34;34.20;;;26.00;;
84491;SDS011;74718;40.778;21.400;2023-12-20T13:04:59;33.30;;;23.60;;
84491;SDS011;74718;40.778;21.400;2023-12-20T13:07:26;33.40;;;23.50;;
84491;SDS011;74718;40.778;21.400;2023-12-20T13:09:51;43.50;;;30.30;;
84491;SDS011;74718;40.778;21.400;2023-12-20T13:12:17;36.10;;;25.20;;
84491;SDS011;74718;40.778;21.400;2023-12-20T13:14:42;33.80;;;24.30;;
84491;SDS011;74718;40.778;21.400;2023-12-20T13:17:08;37.80;;;28.70;;
84491;SDS011;74718;40.778;21.400;2023-12-20T13:19:33;36.20;;;25.80;;
84491;SDS011;74718;40.778;21.400;2023-12-20T13:21:59;35.40;;;25.80;;
84491;SDS011;74718;40.778;21.400;2023-12-20T13:24:24;35.70;;;25.70;;
84491;SDS011;74718;40.778;21.400;2023-12-20T13:26:50;39.70;;;30.30;;
84491;SDS011;74718;40.778;21.400;2023-12-20T13:29:15;38.30;;;26.70;;
84491;SDS011;74718;40.778;21.400;2023-12-20T13:31:41;42.40;;;29.40;;
84491;SDS011;74718;40.778;21.400;2023-12-20T13:34:07;41.70;;;28.00;;
84491;SDS011;74718;40.778;21.400;2023-12-20T13:36:33;38.70;;;25.80;;
84491;SDS011;74718;40.778;21.400;2023-12-20T13:38:58;32.60;;;22.90;;
84491;SDS011;74718;40.778;21.400;2023-12-20T13:41:24;34.30;;;21.70;;
84491;SDS011;74718;40.778;21.400;2023-12-20T13:43:49;31.60;;;22.00;;
84491;SDS011;74718;40.778;21.400;2023-12-20T13:46:15;32.10;;;21.10;;
84491;SDS011;74718;40.778;21.400;2023-12-20T13:48:40;29.70;;;19.10;;
84491;SDS011;74718;40.778;21.400;2023-12-20T13:51:06;32.30;;;22.10;;
84491;SDS011;74718;40.778;21.400;2023-12-20T13:53:32;30.40;;;21.20;;
84491;SDS011;74718;40.778;21.400;2023-12-20T13:55:58;28.40;;;18.90;;
84491;SDS011;74718;40.778;21.400;2023-12-20T13:58:25;31.50;;;20.40;;
84491;SDS011;74718;40.778;21.400;2023-12-20T14:00:51;27.40;;;19.50;;
84491;SDS011;74718;40.778;21.400;2023-12-20T14:03:16;30.60;;;22.50;;
84491;SDS011;74718;40.778;21.400;2023-12-20T14:05:42;25.00;;;17.40;;
84491;SDS011;74718;40.778;21.400;2023-12-20T14:08:07;25.30;;;17.70;;
84491;SDS011;74718;40.778;21.400;2023-12-20T14:10:33;25.40;;;18.00;;
84491;SDS011;74718;40.778;21.400;2023-12-20T14:12:59;27.10;;;19.50;;
84491;SDS011;74718;40.778;21.400;2023-12-20T14:15:24;29.60;;;20.40;;
84491;SDS011;74718;40.778;21.400;2023-12-20T14:17:50;28.90;;;20.20;;
84491;SDS011;74718;40.778;21.400;2023-12-20T14:20:16;33.40;;;23.70;;
84491;SDS011;74718;40.778;21.400;2023-12-20T14:22:43;31.20;;;22.40;;
84491;SDS011;74718;40.778;21.400;2023-12-20T14:25:11;28.00;;;19.60;;
84491;SDS011;74718;40.778;21.400;2023-12-20T14:27:38;34.40;;;20.80;;
84491;SDS011;74718;40.778;21.400;2023-12-20T14:30:06;32.80;;;20.60;;
84491;SDS011;74718;40.778;21.400;2023-12-20T14:32:34;34.00;;;21.90;;
84491;SDS011;74718;40.778;21.400;2023-12-20T14:35:02;35.90;;;22.80;;
84491;SDS011;74718;40.778;21.400;2023-12-20T14:37:29;38.60;;;24.10;;
84491;SDS011;74718;40.778;21.400;2023-12-20T14:39:54;48.60;;;33.80;;
84491;SDS011;74718;40.778;21.400;2023-12-20T14:42:20;48.60;;;29.60;;
84491;SDS011;74718;40.778;21.400;2023-12-20T14:44:47;45.80;;;28.50;;
84491;SDS011;74718;40.778;21.400;2023-12-20T14:47:13;44.50;;;27.40;;
84491;SDS011;74718;40.778;21.400;2023-12-20T14:49:41;44.50;;;28.90;;
84491;SDS011;74718;40.778;21.400;2023-12-20T14:52:07;41.00;;;26.90;;
84491;SDS011;74718;40.778;21.400;2023-12-20T14:54:36;43.00;;;26.70;;
84491;SDS011;74718;40.778;21.400;2023-12-20T14:57:02;43.90;;;29.30;;
84491;SDS011;74718;40.778;21.400;2023-12-20T14:59:28;41.90;;;28.50;;
84491;SDS011;74718;40.778;21.400;2023-12-20T15:01:53;49.90;;;32.00;;
84491;SDS011;74718;40.778;21.400;2023-12-20T15:04:20;49.00;;;31.20;;
84491;SDS011;74718;40.778;21.400;2023-12-20T15:06:51;48.90;;;31.80;;
84491;SDS011;74718;40.778;21.400;2023-12-20T15:09:17;49.70;;;31.10;;
84491;SDS011;74718;40.778;21.400;2023-12-20T15:11:42;51.60;;;33.40;;
84491;SDS011;74718;40.778;21.400;2023-12-20T15:14:08;60.10;;;36.00;;
84491;SDS011;74718;40.778;21.400;2023-12-20T15:16:34;59.20;;;36.60;;
84491;SDS011;74718;40.778;21.400;2023-12-20T15:19:00;60.00;;;38.10;;
84491;SDS011;74718;40.778;21.400;2023-12-20T15:21:26;53.90;;;34.30;;
84491;SDS011;74718;40.778;21.400;2023-12-20T15:23:57;48.30;;;32.60;;
84491;SDS011;74718;40.778;21.400;2023-12-20T15:26:34;51.10;;;33.20;;
84491;SDS011;74718;40.778;21.400;2023-12-20T15:29:03;41.90;;;26.80;;
84491;SDS011;74718;40.778;21.400;2023-12-20T15:31:29;45.00;;;30.40;;
84491;SDS011;74718;40.778;21.400;2023-12-20T15:33:56;33.50;;;23.50;;
84491;SDS011;74718;40.778;21.400;2023-12-20T15:36:22;35.40;;;23.60;;
84491;SDS011;74718;40.778;21.400;2023-12-20T15:38:48;38.30;;;25.90;;
84491;SDS011;74718;40.778;21.400;2023-12-20T15:41:19;31.60;;;21.70;;
84491;SDS011;74718;40.778;21.400;2023-12-20T15:43:46;37.70;;;24.50;;
84491;SDS011;74718;40.778;21.400;2023-12-20T15:46:11;38.20;;;28.60;;
84491;SDS011;74718;40.778;21.400;2023-12-20T15:48:37;39.30;;;29.00;;
84491;SDS011;74718;40.778;21.400;2023-12-20T15:51:06;34.10;;;22.80;;
84491;SDS011;74718;40.778;21.400;2023-12-20T15:53:33;28.10;;;20.50;;
84491;SDS011;74718;40.778;21.400;2023-12-20T15:55:59;29.90;;;20.50;;
84491;SDS011;74718;40.778;21.400;2023-12-20T15:58:24;35.50;;;24.10;;
84491;SDS011;74718;40.778;21.400;2023-12-20T16:00:51;31.90;;;22.00;;
84491;SDS011;74718;40.778;21.400;2023-12-20T16:03:17;34.10;;;22.40;;
84491;SDS011;74718;40.778;21.400;2023-12-20T16:05:42;34.10;;;23.30;;
84491;SDS011;74718;40.778;21.400;2023-12-20T16:08:08;39.10;;;30.60;;
84491;SDS011;74718;40.778;21.400;2023-12-20T16:10:33;39.70;;;26.90;;
84491;SDS011;74718;40.778;21.400;2023-12-20T16:12:59;35.50;;;25.40;;
84491;SDS011;74718;40.778;21.400;2023-12-20T16:15:24;41.20;;;28.40;;
84491;SDS011;74718;40.778;21.400;2023-12-20T16:17:50;44.50;;;28.00;;
84491;SDS011;74718;40.778;21.400;2023-12-20T16:20:15;47.20;;;29.90;;
84491;SDS011;74718;40.778;21.400;2023-12-20T16:22:41;48.00;;;30.70;;